KLAL/LAL METAR and TAF weather

Enter ICAO airport designator
Station Type Date Time Source
KLAL METAR 2019/04/18 21:50 UTC NOAA

KLAL 182150Z 19007KT 10SM SCT060 32/18 A2988


Station Type Date Time Source
KLAL Decoded METAR 2019/04/18 21:50 UTC NOAA

Lakeland Regional, FL, United States (KLAL) 27-59N 082-01W
Apr 18, 2019 - 05:50 PM EDT / 2019.04.18 2150 UTC
Wind: from the S (190 degrees) at 8 MPH (7 KT):0
Visibility: 10 mile(s):0
Sky conditions: partly cloudy
Temperature: 89 F (32 C)
Dew Point: 64 F (18 C)
Relative Humidity: 43%
Pressure (altimeter): 29.88 in. Hg (1011 hPa)
ob: KLAL 182150Z 19007KT 10SM SCT060 32/18 A2988
cycle: 22

Station Type Date Time Source
KLAL TAF 2019/04/18 18:27 UTC NOAA

TAF KLAL 181725Z 1818/1918 17013G20KT P6SM SCT040 SCT200
FM182300 18012G17KT P6SM SCT050 SCT110
FM190300 17007KT P6SM SCT030 BKN200
FM191000 17012G17KT P6SM VCSH SCT030 BKN060
FM191200 17015G25KT 6SM SHRA VCTS SCT020CB BKN090
FM191700 19020G30KT 4SM TSRA BKN008CB OVC015

Example: see airport list